sensor_id;sensor_type;location;lat;lon;timestamp;temperature;humidity
18733;DHT22;9495;51.210;2.934;2022-10-17T00:01:04;19.50;99.90
18733;DHT22;9495;51.210;2.934;2022-10-17T00:03:34;19.70;99.90
18733;DHT22;9495;51.210;2.934;2022-10-17T00:06:05;19.30;99.90
18733;DHT22;9495;51.210;2.934;2022-10-17T00:08:34;19.30;99.90
18733;DHT22;9495;51.210;2.934;2022-10-17T00:11:04;19.30;99.90
18733;DHT22;9495;51.210;2.934;2022-10-17T00:13:34;19.70;99.90
18733;DHT22;9495;51.210;2.934;2022-10-17T00:16:03;19.60;99.90
18733;DHT22;9495;51.210;2.934;2022-10-17T00:18:31;19.80;99.90
18733;DHT22;9495;51.210;2.934;2022-10-17T00:20:59;19.70;99.90
18733;DHT22;9495;51.210;2.934;2022-10-17T00:23:28;19.60;99.90
18733;DHT22;9495;51.210;2.934;2022-10-17T00:25:59;19.60;99.90
18733;DHT22;9495;51.210;2.934;2022-10-17T00:28:28;19.50;99.90
18733;DHT22;9495;51.210;2.934;2022-10-17T00:30:59;19.30;99.90
18733;DHT22;9495;51.210;2.934;2022-10-17T00:33:28;19.60;99.90
18733;DHT22;9495;51.210;2.934;2022-10-17T00:36:04;19.80;99.90
18733;DHT22;9495;51.210;2.934;2022-10-17T00:38:33;19.90;99.90
18733;DHT22;9495;51.210;2.934;2022-10-17T00:41:02;19.70;99.90
18733;DHT22;9495;51.210;2.934;2022-10-17T00:46:15;19.60;99.90
18733;DHT22;9495;51.210;2.934;2022-10-17T00:48:44;19.60;99.90
18733;DHT22;9495;51.210;2.934;2022-10-17T00:51:13;19.60;99.90
18733;DHT22;9495;51.210;2.934;2022-10-17T00:53:42;19.40;99.90
18733;DHT22;9495;51.210;2.934;2022-10-17T00:56:11;19.50;99.90
18733;DHT22;9495;51.210;2.934;2022-10-17T00:58:40;19.30;99.90
18733;DHT22;9495;51.210;2.934;2022-10-17T01:01:08;19.50;99.90
18733;DHT22;9495;51.210;2.934;2022-10-17T01:03:38;19.60;99.90
18733;DHT22;9495;51.210;2.934;2022-10-17T01:06:06;19.80;99.90
18733;DHT22;9495;51.210;2.934;2022-10-17T01:08:35;19.90;99.90
18733;DHT22;9495;51.210;2.934;2022-10-17T01:11:12;19.60;99.90
18733;DHT22;9495;51.210;2.934;2022-10-17T01:13:50;19.80;99.90
18733;DHT22;9495;51.210;2.934;2022-10-17T01:16:25;19.90;99.90
18733;DHT22;9495;51.210;2.934;2022-10-17T01:19:02;19.80;99.90
18733;DHT22;9495;51.210;2.934;2022-10-17T01:21:42;19.30;99.90
18733;DHT22;9495;51.210;2.934;2022-10-17T01:24:40;19.20;99.90
18733;DHT22;9495;51.210;2.934;2022-10-17T01:33:25;19.60;99.90
18733;DHT22;9495;51.210;2.934;2022-10-17T01:35:58;19.50;99.90
18733;DHT22;9495;51.210;2.934;2022-10-17T01:38:33;19.60;99.90
18733;DHT22;9495;51.210;2.934;2022-10-17T01:41:05;19.60;99.90
18733;DHT22;9495;51.210;2.934;2022-10-17T01:43:39;19.60;99.90
18733;DHT22;9495;51.210;2.934;2022-10-17T01:46:11;19.80;99.90
18733;DHT22;9495;51.210;2.934;2022-10-17T01:48:44;19.70;99.90
18733;DHT22;9495;51.210;2.934;2022-10-17T01:51:16;19.70;99.90
18733;DHT22;9495;51.210;2.934;2022-10-17T01:53:51;19.70;99.90
18733;DHT22;9495;51.210;2.934;2022-10-17T01:56:21;19.40;99.90
18733;DHT22;9495;51.210;2.934;2022-10-17T01:58:56;19.30;99.90
18733;DHT22;9495;51.210;2.934;2022-10-17T02:01:28;19.30;99.90
18733;DHT22;9495;51.210;2.934;2022-10-17T02:04:00;19.40;99.90
18733;DHT22;9495;51.210;2.934;2022-10-17T02:06:28;19.50;99.90
18733;DHT22;9495;51.210;2.934;2022-10-17T02:09:01;19.40;99.90
18733;DHT22;9495;51.210;2.934;2022-10-17T02:11:43;19.60;99.90
18733;DHT22;9495;51.210;2.934;2022-10-17T02:14:21;19.60;99.90
18733;DHT22;9495;51.210;2.934;2022-10-17T02:17:03;19.90;99.90
18733;DHT22;9495;51.210;2.934;2022-10-17T02:19:49;20.00;99.90
18733;DHT22;9495;51.210;2.934;2022-10-17T02:22:29;20.00;99.90
18733;DHT22;9495;51.210;2.934;2022-10-17T02:25:02;19.70;99.90
18733;DHT22;9495;51.210;2.934;2022-10-17T02:27:41;19.80;99.90
18733;DHT22;9495;51.210;2.934;2022-10-17T02:30:13;19.90;99.90
18733;DHT22;9495;51.210;2.934;2022-10-17T02:32:44;19.90;99.90
18733;DHT22;9495;51.210;2.934;2022-10-17T02:35:19;19.80;99.90
18733;DHT22;9495;51.210;2.934;2022-10-17T02:37:48;19.80;99.90
18733;DHT22;9495;51.210;2.934;2022-10-17T02:40:20;19.70;99.90
18733;DHT22;9495;51.210;2.934;2022-10-17T02:42:50;19.70;99.90
18733;DHT22;9495;51.210;2.934;2022-10-17T02:45:19;19.90;99.90
18733;DHT22;9495;51.210;2.934;2022-10-17T02:47:52;19.80;99.90
18733;DHT22;9495;51.210;2.934;2022-10-17T02:50:29;19.80;99.90
18733;DHT22;9495;51.210;2.934;2022-10-17T02:53:03;19.80;99.90
18733;DHT22;9495;51.210;2.934;2022-10-17T02:55:36;19.80;99.90
18733;DHT22;9495;51.210;2.934;2022-10-17T02:58:09;19.80;99.90
18733;DHT22;9495;51.210;2.934;2022-10-17T03:00:40;19.70;99.90
18733;DHT22;9495;51.210;2.934;2022-10-17T03:03:19;19.80;99.90
18733;DHT22;9495;51.210;2.934;2022-10-17T03:05:48;19.80;99.90
18733;DHT22;9495;51.210;2.934;2022-10-17T03:08:18;19.90;99.90
18733;DHT22;9495;51.210;2.934;2022-10-17T03:10:47;19.70;99.90
18733;DHT22;9495;51.210;2.934;2022-10-17T03:13:16;19.70;99.90
18733;DHT22;9495;51.210;2.934;2022-10-17T03:15:45;19.70;99.90
18733;DHT22;9495;51.210;2.934;2022-10-17T03:18:13;19.70;99.90
18733;DHT22;9495;51.210;2.934;2022-10-17T03:20:41;19.60;99.90
18733;DHT22;9495;51.210;2.934;2022-10-17T03:23:11;19.50;99.90
18733;DHT22;9495;51.210;2.934;2022-10-17T03:25:39;19.60;99.90
18733;DHT22;9495;51.210;2.934;2022-10-17T03:28:09;19.60;99.90
18733;DHT22;9495;51.210;2.934;2022-10-17T03:30:38;19.60;99.90
18733;DHT22;9495;51.210;2.934;2022-10-17T03:33:06;19.70;99.90
18733;DHT22;9495;51.210;2.934;2022-10-17T03:35:37;19.60;99.90
18733;DHT22;9495;51.210;2.934;2022-10-17T03:38:06;19.70;99.90
18733;DHT22;9495;51.210;2.934;2022-10-17T03:40:35;19.70;99.90
18733;DHT22;9495;51.210;2.934;2022-10-17T03:43:04;19.60;99.90
18733;DHT22;9495;51.210;2.934;2022-10-17T03:45:32;19.50;99.90
18733;DHT22;9495;51.210;2.934;2022-10-17T03:48:01;19.50;99.90
18733;DHT22;9495;51.210;2.934;2022-10-17T03:50:29;19.30;99.90
18733;DHT22;9495;51.210;2.934;2022-10-17T03:52:58;19.30;99.90
18733;DHT22;9495;51.210;2.934;2022-10-17T03:55:26;19.20;99.90
18733;DHT22;9495;51.210;2.934;2022-10-17T03:57:55;18.90;99.90
18733;DHT22;9495;51.210;2.934;2022-10-17T04:00:24;19.00;99.90
18733;DHT22;9495;51.210;2.934;2022-10-17T04:02:52;18.90;99.90
18733;DHT22;9495;51.210;2.934;2022-10-17T04:05:20;18.90;99.90
18733;DHT22;9495;51.210;2.934;2022-10-17T04:07:49;18.70;99.90
18733;DHT22;9495;51.210;2.934;2022-10-17T04:10:17;18.70;99.90
18733;DHT22;9495;51.210;2.934;2022-10-17T04:12:45;18.80;99.90
18733;DHT22;9495;51.210;2.934;2022-10-17T04:15:15;18.70;99.90
18733;DHT22;9495;51.210;2.934;2022-10-17T04:17:44;18.60;99.90
18733;DHT22;9495;51.210;2.934;2022-10-17T04:20:14;18.70;99.90
18733;DHT22;9495;51.210;2.934;2022-10-17T04:22:42;18.70;99.90
18733;DHT22;9495;51.210;2.934;2022-10-17T04:25:11;19.00;99.90
18733;DHT22;9495;51.210;2.934;2022-10-17T04:27:39;18.80;99.90
18733;DHT22;9495;51.210;2.934;2022-10-17T04:30:08;18.60;99.90
18733;DHT22;9495;51.210;2.934;2022-10-17T04:32:38;18.60;99.90
18733;DHT22;9495;51.210;2.934;2022-10-17T04:35:07;18.50;99.90
18733;DHT22;9495;51.210;2.934;2022-10-17T04:37:35;18.40;99.90
18733;DHT22;9495;51.210;2.934;2022-10-17T04:40:04;18.30;99.90
18733;DHT22;9495;51.210;2.934;2022-10-17T04:42:33;18.40;99.90
18733;DHT22;9495;51.210;2.934;2022-10-17T04:45:01;18.50;99.90
18733;DHT22;9495;51.210;2.934;2022-10-17T04:47:29;18.50;99.90
18733;DHT22;9495;51.210;2.934;2022-10-17T04:49:59;18.60;99.90
18733;DHT22;9495;51.210;2.934;2022-10-17T04:52:27;18.70;99.90
18733;DHT22;9495;51.210;2.934;2022-10-17T04:54:56;18.40;99.90
18733;DHT22;9495;51.210;2.934;2022-10-17T04:57:24;18.40;99.90
18733;DHT22;9495;51.210;2.934;2022-10-17T04:59:53;18.20;99.90
18733;DHT22;9495;51.210;2.934;2022-10-17T05:02:21;18.20;99.90
18733;DHT22;9495;51.210;2.934;2022-10-17T05:04:50;18.10;99.90
18733;DHT22;9495;51.210;2.934;2022-10-17T05:07:19;18.10;99.90
18733;DHT22;9495;51.210;2.934;2022-10-17T05:09:47;18.00;99.90
18733;DHT22;9495;51.210;2.934;2022-10-17T05:12:16;17.90;99.90
18733;DHT22;9495;51.210;2.934;2022-10-17T05:14:44;18.00;99.90
18733;DHT22;9495;51.210;2.934;2022-10-17T05:17:12;18.00;99.90
18733;DHT22;9495;51.210;2.934;2022-10-17T05:19:41;18.00;99.90
18733;DHT22;9495;51.210;2.934;2022-10-17T05:22:09;18.00;99.90
18733;DHT22;9495;51.210;2.934;2022-10-17T05:24:39;18.00;99.90
18733;DHT22;9495;51.210;2.934;2022-10-17T05:27:07;18.10;99.90
18733;DHT22;9495;51.210;2.934;2022-10-17T05:29:35;18.00;99.90
18733;DHT22;9495;51.210;2.934;2022-10-17T05:32:03;18.00;99.90
18733;DHT22;9495;51.210;2.934;2022-10-17T05:34:32;18.00;99.90
18733;DHT22;9495;51.210;2.934;2022-10-17T05:37:01;18.00;99.90
18733;DHT22;9495;51.210;2.934;2022-10-17T05:39:30;18.00;99.90
18733;DHT22;9495;51.210;2.934;2022-10-17T05:41:59;18.00;99.90
18733;DHT22;9495;51.210;2.934;2022-10-17T05:44:27;18.30;99.90
18733;DHT22;9495;51.210;2.934;2022-10-17T05:46:56;18.30;99.90
18733;DHT22;9495;51.210;2.934;2022-10-17T05:49:24;18.10;99.90
18733;DHT22;9495;51.210;2.934;2022-10-17T05:52:05;18.10;99.90
18733;DHT22;9495;51.210;2.934;2022-10-17T05:54:34;18.30;99.90
18733;DHT22;9495;51.210;2.934;2022-10-17T05:57:03;18.70;99.90
18733;DHT22;9495;51.210;2.934;2022-10-17T05:59:32;18.80;99.90
18733;DHT22;9495;51.210;2.934;2022-10-17T06:02:00;19.00;99.90
18733;DHT22;9495;51.210;2.934;2022-10-17T06:04:29;19.20;99.90
18733;DHT22;9495;51.210;2.934;2022-10-17T06:06:57;19.40;99.90
18733;DHT22;9495;51.210;2.934;2022-10-17T06:09:25;19.30;99.90
18733;DHT22;9495;51.210;2.934;2022-10-17T06:11:54;19.40;99.90
18733;DHT22;9495;51.210;2.934;2022-10-17T06:14:23;19.40;99.90
18733;DHT22;9495;51.210;2.934;2022-10-17T06:16:52;19.40;99.90
18733;DHT22;9495;51.210;2.934;2022-10-17T06:19:20;19.60;99.90
18733;DHT22;9495;51.210;2.934;2022-10-17T06:21:49;19.50;99.90
18733;DHT22;9495;51.210;2.934;2022-10-17T06:24:17;19.60;99.90
18733;DHT22;9495;51.210;2.934;2022-10-17T06:26:45;19.80;99.90
18733;DHT22;9495;51.210;2.934;2022-10-17T06:29:15;20.00;99.90
18733;DHT22;9495;51.210;2.934;2022-10-17T06:31:45;19.70;99.90
18733;DHT22;9495;51.210;2.934;2022-10-17T06:34:14;19.70;99.90
18733;DHT22;9495;51.210;2.934;2022-10-17T06:36:42;19.80;99.90
18733;DHT22;9495;51.210;2.934;2022-10-17T06:39:10;19.80;99.90
18733;DHT22;9495;51.210;2.934;2022-10-17T06:41:39;19.70;99.90
18733;DHT22;9495;51.210;2.934;2022-10-17T06:44:09;19.50;99.90
18733;DHT22;9495;51.210;2.934;2022-10-17T06:46:38;19.80;99.90
18733;DHT22;9495;51.210;2.934;2022-10-17T06:49:09;19.80;99.90
18733;DHT22;9495;51.210;2.934;2022-10-17T06:51:37;19.90;99.90
18733;DHT22;9495;51.210;2.934;2022-10-17T06:54:06;19.70;99.90
18733;DHT22;9495;51.210;2.934;2022-10-17T06:56:34;19.50;99.90
18733;DHT22;9495;51.210;2.934;2022-10-17T06:59:03;19.20;99.90
18733;DHT22;9495;51.210;2.934;2022-10-17T07:01:31;19.30;99.90
18733;DHT22;9495;51.210;2.934;2022-10-17T07:04:00;19.00;99.90
18733;DHT22;9495;51.210;2.934;2022-10-17T07:06:30;18.90;99.90
18733;DHT22;9495;51.210;2.934;2022-10-17T07:08:58;18.80;99.90
18733;DHT22;9495;51.210;2.934;2022-10-17T07:11:28;18.80;99.90
18733;DHT22;9495;51.210;2.934;2022-10-17T07:13:57;18.80;99.90
18733;DHT22;9495;51.210;2.934;2022-10-17T07:16:25;18.70;99.90
18733;DHT22;9495;51.210;2.934;2022-10-17T07:18:54;18.70;99.90
18733;DHT22;9495;51.210;2.934;2022-10-17T07:21:22;18.60;99.90
18733;DHT22;9495;51.210;2.934;2022-10-17T07:23:52;18.60;99.90
18733;DHT22;9495;51.210;2.934;2022-10-17T07:26:20;18.50;99.90
18733;DHT22;9495;51.210;2.934;2022-10-17T07:28:51;18.40;99.90
18733;DHT22;9495;51.210;2.934;2022-10-17T07:31:21;18.40;99.90
18733;DHT22;9495;51.210;2.934;2022-10-17T07:33:49;18.40;99.90
18733;DHT22;9495;51.210;2.934;2022-10-17T07:36:18;18.40;99.90
18733;DHT22;9495;51.210;2.934;2022-10-17T07:38:46;18.50;99.90
18733;DHT22;9495;51.210;2.934;2022-10-17T07:41:16;18.50;99.90
18733;DHT22;9495;51.210;2.934;2022-10-17T07:43:48;18.30;99.90
18733;DHT22;9495;51.210;2.934;2022-10-17T07:46:16;18.30;99.90
18733;DHT22;9495;51.210;2.934;2022-10-17T07:48:45;18.30;99.90
18733;DHT22;9495;51.210;2.934;2022-10-17T07:51:13;18.20;99.90
18733;DHT22;9495;51.210;2.934;2022-10-17T07:53:41;18.20;99.90
18733;DHT22;9495;51.210;2.934;2022-10-17T07:56:15;18.40;99.90
18733;DHT22;9495;51.210;2.934;2022-10-17T07:58:44;18.50;99.90
18733;DHT22;9495;51.210;2.934;2022-10-17T08:01:14;18.60;99.90
18733;DHT22;9495;51.210;2.934;2022-10-17T08:03:44;18.70;99.90
18733;DHT22;9495;51.210;2.934;2022-10-17T08:06:13;18.70;99.90
18733;DHT22;9495;51.210;2.934;2022-10-17T08:08:42;18.90;99.90
18733;DHT22;9495;51.210;2.934;2022-10-17T08:11:13;19.20;99.90
18733;DHT22;9495;51.210;2.934;2022-10-17T08:13:42;19.50;99.90
18733;DHT22;9495;51.210;2.934;2022-10-17T08:16:12;19.50;99.90
18733;DHT22;9495;51.210;2.934;2022-10-17T08:18:41;19.60;99.90
18733;DHT22;9495;51.210;2.934;2022-10-17T08:21:11;19.50;99.90
18733;DHT22;9495;51.210;2.934;2022-10-17T08:23:40;19.80;99.90
18733;DHT22;9495;51.210;2.934;2022-10-17T08:26:10;19.80;99.90
18733;DHT22;9495;51.210;2.934;2022-10-17T08:28:39;19.60;99.90
18733;DHT22;9495;51.210;2.934;2022-10-17T08:31:12;19.80;99.90
18733;DHT22;9495;51.210;2.934;2022-10-17T08:33:40;19.90;99.90
18733;DHT22;9495;51.210;2.934;2022-10-17T08:36:09;19.90;99.90
18733;DHT22;9495;51.210;2.934;2022-10-17T08:38:39;19.80;99.90
18733;DHT22;9495;51.210;2.934;2022-10-17T08:41:14;19.90;99.90
18733;DHT22;9495;51.210;2.934;2022-10-17T08:44:03;20.00;99.90
18733;DHT22;9495;51.210;2.934;2022-10-17T08:46:37;20.20;99.90
18733;DHT22;9495;51.210;2.934;2022-10-17T08:49:11;20.30;99.90
18733;DHT22;9495;51.210;2.934;2022-10-17T08:51:46;20.20;99.90
18733;DHT22;9495;51.210;2.934;2022-10-17T08:54:18;20.10;99.90
18733;DHT22;9495;51.210;2.934;2022-10-17T08:56:49;20.00;99.90
18733;DHT22;9495;51.210;2.934;2022-10-17T08:59:22;20.00;99.90
18733;DHT22;9495;51.210;2.934;2022-10-17T09:01:57;19.80;99.90
18733;DHT22;9495;51.210;2.934;2022-10-17T09:04:44;19.80;99.90
18733;DHT22;9495;51.210;2.934;2022-10-17T09:07:18;19.80;99.90
18733;DHT22;9495;51.210;2.934;2022-10-17T09:09:58;19.40;99.90
18733;DHT22;9495;51.210;2.934;2022-10-17T09:12:36;19.20;99.90
18733;DHT22;9495;51.210;2.934;2022-10-17T09:18:19;19.40;99.90
18733;DHT22;9495;51.210;2.934;2022-10-17T09:20:52;19.50;99.90
18733;DHT22;9495;51.210;2.934;2022-10-17T09:23:24;19.80;99.90
18733;DHT22;9495;51.210;2.934;2022-10-17T09:25:54;20.00;99.90
18733;DHT22;9495;51.210;2.934;2022-10-17T09:28:26;19.90;99.90
18733;DHT22;9495;51.210;2.934;2022-10-17T09:30:59;19.90;99.90
18733;DHT22;9495;51.210;2.934;2022-10-17T09:33:32;19.80;99.90
18733;DHT22;9495;51.210;2.934;2022-10-17T09:36:23;19.80;99.90
18733;DHT22;9495;51.210;2.934;2022-10-17T09:38:54;19.80;99.90
18733;DHT22;9495;51.210;2.934;2022-10-17T09:41:25;19.80;99.90
18733;DHT22;9495;51.210;2.934;2022-10-17T09:44:18;20.00;99.90
18733;DHT22;9495;51.210;2.934;2022-10-17T09:47:10;19.80;99.90
18733;DHT22;9495;51.210;2.934;2022-10-17T09:49:43;19.70;99.90
18733;DHT22;9495;51.210;2.934;2022-10-17T09:52:14;19.80;99.90
18733;DHT22;9495;51.210;2.934;2022-10-17T09:54:45;20.20;99.90
18733;DHT22;9495;51.210;2.934;2022-10-17T09:57:15;20.30;99.90
18733;DHT22;9495;51.210;2.934;2022-10-17T09:59:45;19.90;99.90
18733;DHT22;9495;51.210;2.934;2022-10-17T10:02:18;19.80;99.90
18733;DHT22;9495;51.210;2.934;2022-10-17T10:04:56;19.80;99.90
18733;DHT22;9495;51.210;2.934;2022-10-17T10:10:00;19.50;99.90
18733;DHT22;9495;51.210;2.934;2022-10-17T10:12:31;19.40;99.90
18733;DHT22;9495;51.210;2.934;2022-10-17T10:14:59;19.40;99.90
18733;DHT22;9495;51.210;2.934;2022-10-17T10:17:36;19.50;99.90
18733;DHT22;9495;51.210;2.934;2022-10-17T10:20:29;19.50;99.90
18733;DHT22;9495;51.210;2.934;2022-10-17T10:23:11;19.80;99.90
18733;DHT22;9495;51.210;2.934;2022-10-17T10:25:54;19.90;99.90
18733;DHT22;9495;51.210;2.934;2022-10-17T10:28:26;19.90;99.90
18733;DHT22;9495;51.210;2.934;2022-10-17T10:30:56;19.90;99.90
18733;DHT22;9495;51.210;2.934;2022-10-17T10:33:27;20.00;99.90
18733;DHT22;9495;51.210;2.934;2022-10-17T10:36:00;20.10;99.90
18733;DHT22;9495;51.210;2.934;2022-10-17T10:38:30;20.00;99.90
18733;DHT22;9495;51.210;2.934;2022-10-17T10:41:02;20.10;99.90
18733;DHT22;9495;51.210;2.934;2022-10-17T10:43:35;20.20;99.90
18733;DHT22;9495;51.210;2.934;2022-10-17T10:46:15;20.20;99.90
18733;DHT22;9495;51.210;2.934;2022-10-17T10:48:52;20.30;99.90
18733;DHT22;9495;51.210;2.934;2022-10-17T10:51:25;20.50;99.90
18733;DHT22;9495;51.210;2.934;2022-10-17T10:53:58;20.50;99.90
18733;DHT22;9495;51.210;2.934;2022-10-17T10:56:32;20.40;99.90
18733;DHT22;9495;51.210;2.934;2022-10-17T10:59:05;20.30;99.90
18733;DHT22;9495;51.210;2.934;2022-10-17T11:01:41;20.50;99.90
18733;DHT22;9495;51.210;2.934;2022-10-17T11:04:22;20.20;99.90
18733;DHT22;9495;51.210;2.934;2022-10-17T11:06:59;19.80;99.90
18733;DHT22;9495;51.210;2.934;2022-10-17T11:09:35;19.90;99.90
18733;DHT22;9495;51.210;2.934;2022-10-17T11:12:12;20.20;99.90
18733;DHT22;9495;51.210;2.934;2022-10-17T11:14:47;20.00;99.90
18733;DHT22;9495;51.210;2.934;2022-10-17T11:17:23;20.00;99.90
18733;DHT22;9495;51.210;2.934;2022-10-17T11:20:02;20.00;99.90
18733;DHT22;9495;51.210;2.934;2022-10-17T11:22:36;20.00;99.90
18733;DHT22;9495;51.210;2.934;2022-10-17T11:25:14;20.00;99.90
18733;DHT22;9495;51.210;2.934;2022-10-17T11:27:44;20.10;99.90
18733;DHT22;9495;51.210;2.934;2022-10-17T11:30:14;20.00;99.90
18733;DHT22;9495;51.210;2.934;2022-10-17T11:32:44;20.10;99.90
18733;DHT22;9495;51.210;2.934;2022-10-17T11:35:18;20.20;99.90
18733;DHT22;9495;51.210;2.934;2022-10-17T11:37:51;20.20;99.90
18733;DHT22;9495;51.210;2.934;2022-10-17T11:40:26;20.20;99.90
18733;DHT22;9495;51.210;2.934;2022-10-17T11:42:59;20.10;99.90
18733;DHT22;9495;51.210;2.934;2022-10-17T11:45:39;20.20;99.90
18733;DHT22;9495;51.210;2.934;2022-10-17T11:48:12;20.20;99.90
18733;DHT22;9495;51.210;2.934;2022-10-17T11:50:46;20.60;99.90
18733;DHT22;9495;51.210;2.934;2022-10-17T11:53:50;20.50;99.90
18733;DHT22;9495;51.210;2.934;2022-10-17T11:56:25;20.40;99.90
18733;DHT22;9495;51.210;2.934;2022-10-17T11:59:00;20.10;99.90
18733;DHT22;9495;51.210;2.934;2022-10-17T12:01:37;20.40;99.90
18733;DHT22;9495;51.210;2.934;2022-10-17T12:04:17;20.60;99.90
18733;DHT22;9495;51.210;2.934;2022-10-17T12:06:56;20.70;99.90
18733;DHT22;9495;51.210;2.934;2022-10-17T12:09:33;20.70;99.90
18733;DHT22;9495;51.210;2.934;2022-10-17T12:12:06;20.70;99.90
18733;DHT22;9495;51.210;2.934;2022-10-17T12:14:40;20.60;99.90
18733;DHT22;9495;51.210;2.934;2022-10-17T12:17:29;20.70;99.90
18733;DHT22;9495;51.210;2.934;2022-10-17T12:20:28;20.70;99.90
18733;DHT22;9495;51.210;2.934;2022-10-17T12:23:04;20.40;99.90
18733;DHT22;9495;51.210;2.934;2022-10-17T12:25:36;20.30;99.90
18733;DHT22;9495;51.210;2.934;2022-10-17T12:28:13;20.50;99.90
18733;DHT22;9495;51.210;2.934;2022-10-17T12:30:56;20.70;99.90
18733;DHT22;9495;51.210;2.934;2022-10-17T12:33:30;20.80;99.90
18733;DHT22;9495;51.210;2.934;2022-10-17T12:39:45;20.90;99.90
18733;DHT22;9495;51.210;2.934;2022-10-17T12:42:46;20.70;99.90
18733;DHT22;9495;51.210;2.934;2022-10-17T12:45:47;20.70;99.90
18733;DHT22;9495;51.210;2.934;2022-10-17T12:54:38;20.60;99.90
18733;DHT22;9495;51.210;2.934;2022-10-17T12:57:23;20.50;99.90
18733;DHT22;9495;51.210;2.934;2022-10-17T12:59:55;20.60;99.90
18733;DHT22;9495;51.210;2.934;2022-10-17T13:02:26;20.60;99.90
18733;DHT22;9495;51.210;2.934;2022-10-17T13:05:04;20.60;99.90
18733;DHT22;9495;51.210;2.934;2022-10-17T13:07:35;20.60;99.90
18733;DHT22;9495;51.210;2.934;2022-10-17T13:10:04;20.70;99.90
18733;DHT22;9495;51.210;2.934;2022-10-17T13:12:36;20.80;99.90
18733;DHT22;9495;51.210;2.934;2022-10-17T13:15:14;20.90;99.90
18733;DHT22;9495;51.210;2.934;2022-10-17T13:17:43;20.80;99.90
18733;DHT22;9495;51.210;2.934;2022-10-17T13:20:18;20.80;99.90
18733;DHT22;9495;51.210;2.934;2022-10-17T13:22:55;20.80;99.90
18733;DHT22;9495;51.210;2.934;2022-10-17T13:25:24;20.80;99.90
18733;DHT22;9495;51.210;2.934;2022-10-17T13:28:04;20.90;99.90
18733;DHT22;9495;51.210;2.934;2022-10-17T13:30:35;20.90;99.90
18733;DHT22;9495;51.210;2.934;2022-10-17T13:33:17;21.00;99.90
18733;DHT22;9495;51.210;2.934;2022-10-17T13:35:46;20.90;99.90
18733;DHT22;9495;51.210;2.934;2022-10-17T13:38:28;20.80;99.90
18733;DHT22;9495;51.210;2.934;2022-10-17T13:40:58;20.90;99.90
18733;DHT22;9495;51.210;2.934;2022-10-17T13:43:47;20.90;99.90
18733;DHT22;9495;51.210;2.934;2022-10-17T13:46:23;21.00;99.90
18733;DHT22;9495;51.210;2.934;2022-10-17T13:49:17;21.00;99.90
18733;DHT22;9495;51.210;2.934;2022-10-17T13:51:51;21.00;99.90
18733;DHT22;9495;51.210;2.934;2022-10-17T13:54:34;21.00;99.90
18733;DHT22;9495;51.210;2.934;2022-10-17T13:57:05;21.00;99.90
18733;DHT22;9495;51.210;2.934;2022-10-17T13:59:43;21.10;99.90
18733;DHT22;9495;51.210;2.934;2022-10-17T14:02:16;20.90;99.90
18733;DHT22;9495;51.210;2.934;2022-10-17T14:04:46;20.90;99.90
18733;DHT22;9495;51.210;2.934;2022-10-17T14:07:37;21.00;99.90
18733;DHT22;9495;51.210;2.934;2022-10-17T14:10:29;21.10;99.90
18733;DHT22;9495;51.210;2.934;2022-10-17T14:12:59;21.00;99.90
18733;DHT22;9495;51.210;2.934;2022-10-17T14:15:29;21.10;99.90
18733;DHT22;9495;51.210;2.934;2022-10-17T14:18:01;21.10;99.90
18733;DHT22;9495;51.210;2.934;2022-10-17T14:20:35;21.10;99.90
18733;DHT22;9495;51.210;2.934;2022-10-17T14:23:32;21.10;99.90
18733;DHT22;9495;51.210;2.934;2022-10-17T14:26:10;21.00;99.90
18733;DHT22;9495;51.210;2.934;2022-10-17T14:28:40;20.90;99.90
18733;DHT22;9495;51.210;2.934;2022-10-17T14:31:12;20.70;99.90
18733;DHT22;9495;51.210;2.934;2022-10-17T14:33:47;20.80;99.90
18733;DHT22;9495;51.210;2.934;2022-10-17T14:36:17;20.80;99.90
18733;DHT22;9495;51.210;2.934;2022-10-17T14:38:48;20.80;99.90
18733;DHT22;9495;51.210;2.934;2022-10-17T14:41:22;20.90;99.90
18733;DHT22;9495;51.210;2.934;2022-10-17T14:44:22;20.90;99.90
18733;DHT22;9495;51.210;2.934;2022-10-17T14:46:53;20.90;99.90
18733;DHT22;9495;51.210;2.934;2022-10-17T14:49:31;20.90;99.90
18733;DHT22;9495;51.210;2.934;2022-10-17T14:54:53;20.90;99.90
18733;DHT22;9495;51.210;2.934;2022-10-17T14:57:24;20.90;99.90
18733;DHT22;9495;51.210;2.934;2022-10-17T14:59:54;21.00;99.90
18733;DHT22;9495;51.210;2.934;2022-10-17T15:02:23;20.90;99.90
18733;DHT22;9495;51.210;2.934;2022-10-17T15:04:53;20.70;99.90
18733;DHT22;9495;51.210;2.934;2022-10-17T15:07:22;20.90;99.90
18733;DHT22;9495;51.210;2.934;2022-10-17T15:09:51;20.90;99.90
18733;DHT22;9495;51.210;2.934;2022-10-17T15:12:21;20.70;99.90
18733;DHT22;9495;51.210;2.934;2022-10-17T15:14:51;20.80;99.90
18733;DHT22;9495;51.210;2.934;2022-10-17T15:17:22;20.70;99.90
18733;DHT22;9495;51.210;2.934;2022-10-17T15:19:51;20.70;99.90
18733;DHT22;9495;51.210;2.934;2022-10-17T15:22:20;20.90;99.90
18733;DHT22;9495;51.210;2.934;2022-10-17T15:24:49;20.90;99.90
18733;DHT22;9495;51.210;2.934;2022-10-17T15:27:18;21.00;99.90
18733;DHT22;9495;51.210;2.934;2022-10-17T15:29:47;21.00;99.90
18733;DHT22;9495;51.210;2.934;2022-10-17T15:32:16;21.00;99.90
18733;DHT22;9495;51.210;2.934;2022-10-17T15:34:44;21.10;99.90
18733;DHT22;9495;51.210;2.934;2022-10-17T15:37:16;20.90;99.90
18733;DHT22;9495;51.210;2.934;2022-10-17T15:39:49;20.80;99.90
18733;DHT22;9495;51.210;2.934;2022-10-17T15:42:20;20.70;99.90
18733;DHT22;9495;51.210;2.934;2022-10-17T15:44:48;20.70;99.90
18733;DHT22;9495;51.210;2.934;2022-10-17T15:47:22;20.70;99.90
18733;DHT22;9495;51.210;2.934;2022-10-17T15:49:51;20.80;99.90
18733;DHT22;9495;51.210;2.934;2022-10-17T15:52:19;20.90;99.90
18733;DHT22;9495;51.210;2.934;2022-10-17T15:54:49;20.90;99.90
18733;DHT22;9495;51.210;2.934;2022-10-17T15:57:19;20.80;99.90
18733;DHT22;9495;51.210;2.934;2022-10-17T15:59:49;20.70;99.90
18733;DHT22;9495;51.210;2.934;2022-10-17T16:02:19;20.70;99.90
18733;DHT22;9495;51.210;2.934;2022-10-17T16:04:48;20.90;99.90
18733;DHT22;9495;51.210;2.934;2022-10-17T16:07:17;20.90;99.90
18733;DHT22;9495;51.210;2.934;2022-10-17T16:09:45;20.80;99.90
18733;DHT22;9495;51.210;2.934;2022-10-17T16:12:17;21.00;99.90
18733;DHT22;9495;51.210;2.934;2022-10-17T16:14:46;21.00;99.90
18733;DHT22;9495;51.210;2.934;2022-10-17T16:17:15;20.90;99.90
18733;DHT22;9495;51.210;2.934;2022-10-17T16:19:44;21.00;99.90
18733;DHT22;9495;51.210;2.934;2022-10-17T16:22:20;21.00;99.90
18733;DHT22;9495;51.210;2.934;2022-10-17T16:24:50;20.90;99.90
18733;DHT22;9495;51.210;2.934;2022-10-17T16:27:25;21.00;99.90
18733;DHT22;9495;51.210;2.934;2022-10-17T16:29:54;20.80;99.90
18733;DHT22;9495;51.210;2.934;2022-10-17T16:32:22;20.70;99.90
18733;DHT22;9495;51.210;2.934;2022-10-17T16:34:51;20.70;99.90
18733;DHT22;9495;51.210;2.934;2022-10-17T16:37:19;20.70;99.90
18733;DHT22;9495;51.210;2.934;2022-10-17T16:39:47;20.80;99.90
18733;DHT22;9495;51.210;2.934;2022-10-17T16:42:18;20.70;99.90
18733;DHT22;9495;51.210;2.934;2022-10-17T16:44:49;20.30;99.90